Time;durP1;ratioP1;P1;durP2;ratioP2;P2;SDS_P1;SDS_P2;PMS_P1;PMS_P2;Temp;Humidity;BMP_temperature;BMP_pressure;BME280_temperature;BME280_humidity;BME280_pressure;Samples;Min_cycle;Max_cycle;Signal;HPM_P1;HPM_P2
2022/10/22 00:00:15;;;;;;;0.50;0.50;;;;;;;8.40;93.08;99966.13;5108282;28;20029;-72
2022/10/22 00:02:41;;;;;;;0.40;0.40;;;;;;;8.40;93.24;99966.97;5126893;28;20054;-71
2022/10/22 00:05:07;;;;;;;0.40;0.40;;;;;;;8.41;93.32;99973.00;5108458;28;20023;-72
2022/10/22 00:07:32;;;;;;;0.40;0.40;;;;;;;8.43;93.33;99966.94;5108264;28;20034;-71
2022/10/22 00:09:58;;;;;;;0.40;0.40;;;;;;;8.41;93.46;99966.09;5126628;28;20024;-71
2022/10/22 00:12:23;;;;;;;0.55;0.55;;;;;;;8.44;93.57;99970.38;5126914;28;20034;-72
2022/10/22 00:14:49;;;;;;;0.77;0.77;;;;;;;8.40;93.59;99971.28;5126788;28;20026;-71
2022/10/22 00:17:15;;;;;;;0.40;0.40;;;;;;;8.41;93.65;99979.03;5108193;28;20035;-71
2022/10/22 00:19:40;;;;;;;0.40;0.40;;;;;;;8.42;93.74;99979.88;5126458;28;20023;-70
2022/10/22 00:22:06;;;;;;;0.50;0.50;;;;;;;8.45;93.84;99984.19;5126290;28;20154;-71
2022/10/22 00:24:33;;;;;;;0.40;0.40;;;;;;;8.46;94.11;99967.78;5126261;28;20035;-71
2022/10/22 00:26:59;;;;;;;0.40;0.40;;;;;;;8.45;93.93;99964.34;5126398;28;20052;-70
2022/10/22 00:29:24;;;;;;;0.40;0.40;;;;;;;8.42;94.04;99961.78;5126353;28;20375;-71
2022/10/22 00:31:50;;;;;;;0.50;0.50;;;;;;;8.42;94.16;99964.34;5126382;28;20024;-71
2022/10/22 00:34:18;;;;;;;0.50;0.50;;;;;;;8.45;94.38;99976.44;5126296;28;20019;-70
2022/10/22 00:36:44;;;;;;;0.40;0.40;;;;;;;8.45;94.47;99974.69;5126159;28;20015;-71
2022/10/22 00:39:11;;;;;;;0.40;0.40;;;;;;;8.49;94.63;99970.34;5107692;28;20019;-71
2022/10/22 00:41:38;;;;;;;0.40;0.40;;;;;;;8.50;94.72;99969.50;5126190;28;20024;-71
2022/10/22 00:44:05;;;;;;;0.50;0.50;;;;;;;8.51;94.96;99973.81;5126143;28;20053;-71
2022/10/22 00:46:31;;;;;;;0.40;0.40;;;;;;;8.50;94.83;99965.19;5126071;28;20016;-71
2022/10/22 00:49:01;;;;;;;0.50;0.50;;;;;;;8.58;95.10;99967.72;5126160;28;20348;-70
2022/10/22 00:51:30;;;;;;;0.50;0.50;;;;;;;8.56;94.84;99972.09;5125897;28;20019;-71
2022/10/22 00:54:03;;;;;;;0.40;0.40;;;;;;;8.55;95.01;99968.63;5126031;28;20033;-71
2022/10/22 00:56:29;;;;;;;0.40;0.40;;;;;;;8.56;95.04;99961.72;5107623;28;20395;-71
2022/10/22 00:58:56;;;;;;;0.40;0.40;;;;;;;8.59;95.20;99969.47;5125929;28;20020;-70
2022/10/22 01:01:28;;;;;;;0.50;0.50;;;;;;;8.61;95.39;99961.69;5107598;28;20111;-70
2022/10/22 01:03:53;;;;;;;0.60;0.60;;;;;;;8.62;95.34;99960.81;5125917;28;20084;-72
2022/10/22 01:06:28;;;;;;;0.50;0.50;;;;;;;8.61;95.44;99952.19;5125693;28;20019;-71
2022/10/22 01:09:15;;;;;;;0.40;0.40;;;;;;;8.62;95.44;99955.66;5125914;28;20034;-71
2022/10/22 01:12:10;;;;;;;0.40;0.40;;;;;;;8.56;95.43;99951.38;5125058;28;20035;-70
2022/10/22 01:14:38;;;;;;;0.50;0.50;;;;;;;8.55;95.45;99953.09;5125882;28;20027;-71
2022/10/22 01:17:08;;;;;;;0.40;0.40;;;;;;;8.58;95.53;99952.22;5125644;28;20030;-70
2022/10/22 01:20:11;;;;;;;0.40;0.40;;;;;;;8.57;95.66;99953.09;5107340;28;20026;-70
2022/10/22 01:22:44;;;;;;;0.40;0.40;;;;;;;8.56;95.80;99951.38;5125498;28;20132;-71
2022/10/22 01:25:36;;;;;;;0.40;0.40;;;;;;;8.56;96.07;99946.22;5125525;28;20024;-70
2022/10/22 01:28:13;;;;;;;0.40;0.40;;;;;;;8.58;96.16;99947.03;5125698;28;20095;-70
2022/10/22 01:30:39;;;;;;;0.40;0.40;;;;;;;8.56;96.18;99943.63;5125612;28;20062;-71
2022/10/22 01:33:09;;;;;;;0.40;0.40;;;;;;;8.53;96.17;99938.44;5107458;28;20024;-70
2022/10/22 01:35:39;;;;;;;0.50;0.50;;;;;;;8.54;96.40;99938.47;5125680;28;20016;-71
2022/10/22 01:38:18;;;;;;;0.50;0.50;;;;;;;8.54;96.33;99934.97;5125511;28;20049;-70
2022/10/22 01:40:46;;;;;;;0.50;0.50;;;;;;;8.56;96.38;99938.44;5125412;28;20063;-69
2022/10/22 01:43:11;;;;;;;0.40;0.40;;;;;;;8.52;96.54;99941.88;5125856;28;20083;-70
2022/10/22 01:45:50;;;;;;;0.50;0.50;;;;;;;8.51;96.33;99940.16;5125367;28;20057;-70
2022/10/22 01:48:33;;;;;;;0.40;0.40;;;;;;;8.53;96.69;99939.28;5125342;28;20030;-71
2022/10/22 01:51:23;;;;;;;0.40;0.40;;;;;;;8.54;96.79;99934.97;5125702;28;20023;-70
2022/10/22 01:54:18;;;;;;;0.40;0.40;;;;;;;8.54;96.98;99932.38;5125214;28;20020;-70
2022/10/22 01:56:58;;;;;;;0.40;0.40;;;;;;;8.55;96.88;99931.53;5125413;28;20024;-70
2022/10/22 01:59:24;;;;;;;0.43;0.43;;;;;;;8.55;97.01;99935.00;5107015;28;20028;-70
2022/10/22 02:01:52;;;;;;;0.47;0.47;;;;;;;8.55;97.07;99931.53;5107017;28;20034;-70
2022/10/22 02:04:25;;;;;;;0.40;0.40;;;;;;;8.55;97.06;99926.38;5125501;28;20031;-70
2022/10/22 02:06:56;;;;;;;0.40;0.40;;;;;;;8.58;97.21;99931.50;5125327;28;20020;-70
2022/10/22 02:09:24;;;;;;;0.40;0.40;;;;;;;8.58;97.30;99928.91;5124952;28;20035;-69
2022/10/22 02:11:50;;;;;;;0.40;0.40;;;;;;;8.57;97.32;99928.94;5125159;28;20053;-69
2022/10/22 02:14:18;;;;;;;0.40;0.40;;;;;;;8.57;97.25;99919.44;5125154;28;20076;-70
2022/10/22 02:16:46;;;;;;;0.50;0.50;;;;;;;8.58;97.36;99922.91;5125110;28;20080;-70
2022/10/22 02:19:14;;;;;;;0.40;0.40;;;;;;;8.58;97.44;99921.16;5125114;28;20031;-70
2022/10/22 02:21:40;;;;;;;0.50;0.50;;;;;;;8.58;97.66;99921.16;5124795;28;20023;-70
2022/10/22 02:24:06;;;;;;;0.40;0.40;;;;;;;8.42;97.43;99895.38;5109185;28;20031;-69
2022/10/22 02:26:38;;;;;;;0.60;0.60;;;;;;;8.54;97.48;99919.44;5110191;28;20071;-71
2022/10/22 02:29:29;;;;;;;0.50;0.50;;;;;;;8.55;97.57;99921.19;5128627;28;20019;-69
2022/10/22 02:31:57;;;;;;;0.40;0.40;;;;;;;8.51;97.75;99912.59;5128924;28;20034;-69
2022/10/22 02:34:29;;;;;;;0.40;0.40;;;;;;;8.54;97.84;99922.03;5128849;28;20066;-70
2022/10/22 02:36:56;;;;;;;0.40;0.40;;;;;;;8.54;98.07;99919.44;5128619;28;20054;-69
2022/10/22 02:39:23;;;;;;;0.40;0.40;;;;;;;8.52;97.92;99916.00;5128312;28;20071;-69
2022/10/22 02:41:49;;;;;;;0.50;0.50;;;;;;;8.49;98.01;99922.06;5128456;28;20030;-69
2022/10/22 02:44:14;;;;;;;0.40;0.40;;;;;;;8.50;98.11;99918.59;5128209;28;20106;-69
2022/10/22 02:46:42;;;;;;;0.40;0.40;;;;;;;8.47;98.35;99915.19;5109845;28;20030;-69
2022/10/22 02:49:07;;;;;;;0.43;0.43;;;;;;;8.48;98.20;99920.34;5128315;28;20029;-69
2022/10/22 02:51:33;;;;;;;0.40;0.40;;;;;;;8.48;98.38;99914.31;5128170;28;20065;-70
2022/10/22 02:53:58;;;;;;;0.50;0.50;;;;;;;8.47;98.22;99917.75;5128074;28;20042;-70
2022/10/22 02:56:23;;;;;;;0.50;0.50;;;;;;;8.45;98.32;99916.94;5128245;28;20026;-69
2022/10/22 02:58:49;;;;;;;0.40;0.40;;;;;;;8.47;98.55;99916.03;5128037;28;20047;-69
2022/10/22 03:01:14;;;;;;;0.40;0.40;;;;;;;8.48;98.39;99914.31;5128083;28;20028;-70
2022/10/22 03:03:39;;;;;;;0.40;0.40;;;;;;;8.45;98.52;99914.34;5128031;28;20046;-69
2022/10/22 03:06:05;;;;;;;0.40;0.40;;;;;;;8.43;98.70;99911.78;5127863;28;20063;-69
2022/10/22 03:08:30;;;;;;;0.50;0.50;;;;;;;8.46;98.75;99909.16;5127751;28;20027;-70
2022/10/22 03:10:56;;;;;;;0.40;0.40;;;;;;;8.45;98.73;99904.84;5127805;28;20023;-70
2022/10/22 03:13:21;;;;;;;0.40;0.40;;;;;;;8.47;98.78;99910.00;5109690;28;20080;-70
2022/10/22 03:15:50;;;;;;;0.45;0.45;;;;;;;8.43;98.86;99902.25;5127756;28;20023;-69
2022/10/22 03:18:16;;;;;;;0.40;0.40;;;;;;;8.40;98.88;99901.44;5109291;28;20028;-71
2022/10/22 03:20:41;;;;;;;0.40;0.40;;;;;;;8.41;99.03;99904.03;5109282;28;20023;-70
2022/10/22 03:23:07;;;;;;;0.40;0.40;;;;;;;8.42;98.81;99905.72;5127489;28;20052;-71
2022/10/22 03:25:33;;;;;;;0.40;0.40;;;;;;;8.42;99.01;99904.88;5127438;28;20019;-70
2022/10/22 03:28:04;;;;;;;0.50;0.50;;;;;;;8.40;99.03;99904.03;5126415;28;20023;-71
2022/10/22 03:30:29;;;;;;;0.40;0.40;;;;;;;8.41;99.25;99909.19;5108018;28;20019;-71
2022/10/22 03:32:54;;;;;;;0.45;0.45;;;;;;;8.42;99.39;99916.06;5127201;28;20035;-71
2022/10/22 03:35:20;;;;;;;0.40;0.40;;;;;;;8.36;99.47;99902.31;5126808;28;20020;-71
2022/10/22 03:37:46;;;;;;;0.40;0.40;;;;;;;8.36;99.24;99910.94;5127357;28;20019;-70
2022/10/22 03:40:12;;;;;;;0.40;0.40;;;;;;;8.40;99.37;99917.81;5108725;28;20019;-71
2022/10/22 03:42:38;;;;;;;0.40;0.40;;;;;;;8.40;99.42;99915.22;5126603;28;20032;-70
2022/10/22 03:45:04;;;;;;;0.40;0.40;;;;;;;8.45;99.60;99917.78;5126233;28;20083;-70
2022/10/22 03:47:29;;;;;;;0.50;0.50;;;;;;;8.42;99.47;99907.44;5107469;28;20019;-69
2022/10/22 03:49:55;;;;;;;0.40;0.40;;;;;;;8.44;99.57;99910.91;5107607;28;20112;-70
2022/10/22 03:52:20;;;;;;;0.45;0.45;;;;;;;8.48;99.74;99919.50;5108591;28;20031;-70
2022/10/22 03:54:45;;;;;;;0.50;0.50;;;;;;;8.42;99.36;99918.66;5108441;28;20083;-70
2022/10/22 03:57:11;;;;;;;0.50;0.50;;;;;;;8.42;99.50;99916.06;5108639;28;20031;-70
2022/10/22 03:59:44;;;;;;;0.50;0.50;;;;;;;8.41;99.67;99919.53;5108771;28;20048;-69
2022/10/22 04:02:10;;;;;;;0.47;0.47;;;;;;;8.41;99.68;99913.50;5108600;28;20023;-70
2022/10/22 04:04:37;;;;;;;0.50;0.50;;;;;;;8.39;99.68;99921.28;5126835;28;20020;-69
2022/10/22 04:07:03;;;;;;;0.40;0.40;;;;;;;8.38;99.64;99916.97;5126639;28;20079;-69
2022/10/22 04:09:32;;;;;;;0.40;0.40;;;;;;;8.38;99.77;99921.28;5126730;28;20034;-70
2022/10/22 04:11:58;;;;;;;0.40;0.40;;;;;;;8.33;99.56;99910.97;5108432;28;20455;-69
2022/10/22 04:14:24;;;;;;;0.50;0.50;;;;;;;8.38;99.79;99916.97;5126806;28;20045;-69
2022/10/22 04:16:49;;;;;;;0.50;0.50;;;;;;;8.38;99.41;99911.81;5108254;28;20020;-70
2022/10/22 04:19:14;;;;;;;0.40;0.40;;;;;;;8.36;99.92;99910.09;5126498;28;20023;-70
2022/10/22 04:21:40;;;;;;;0.40;0.40;;;;;;;8.40;99.79;99910.06;5126424;28;20023;-69
2022/10/22 04:24:05;;;;;;;0.50;0.50;;;;;;;8.39;100.00;99913.53;5126542;28;20036;-69
2022/10/22 04:26:30;;;;;;;0.47;0.47;;;;;;;8.43;99.98;99915.19;5108041;28;20031;-70
2022/10/22 04:28:56;;;;;;;0.40;0.40;;;;;;;8.39;100.00;99902.31;5126413;28;20030;-69
2022/10/22 04:31:23;;;;;;;0.40;0.40;;;;;;;8.41;100.00;99911.78;5126722;28;20020;-71
2022/10/22 04:33:57;;;;;;;0.40;0.40;;;;;;;8.35;100.00;99905.78;5108027;28;20484;-71
2022/10/22 04:36:23;;;;;;;0.40;0.40;;;;;;;8.45;100.00;99920.34;5126113;28;20031;-70
2022/10/22 04:38:57;;;;;;;0.40;0.40;;;;;;;8.46;100.00;99918.66;5126153;28;20023;-70
2022/10/22 04:41:30;;;;;;;0.50;0.50;;;;;;;8.44;99.99;99923.81;5126119;28;20027;-69
2022/10/22 04:43:56;;;;;;;0.40;0.40;;;;;;;8.38;99.82;99927.34;5126220;28;20028;-70
2022/10/22 04:46:24;;;;;;;0.50;0.50;;;;;;;8.35;99.97;99921.31;5125372;28;20055;-71
2022/10/22 04:48:51;;;;;;;0.50;0.50;;;;;;;8.35;100.00;99927.34;5107640;28;20039;-70
2022/10/22 04:51:18;;;;;;;0.40;0.40;;;;;;;8.36;100.00;99920.44;5126167;28;20031;-71
2022/10/22 04:53:44;;;;;;;0.40;0.40;;;;;;;8.31;100.00;99923.91;5126181;28;20090;-71
2022/10/22 04:56:19;;;;;;;0.50;0.50;;;;;;;8.34;100.00;99928.19;5126072;28;20019;-70
2022/10/22 04:58:45;;;;;;;0.40;0.40;;;;;;;8.29;100.00;99917.88;5126042;28;20053;-70
2022/10/22 05:01:15;;;;;;;0.40;0.40;;;;;;;8.32;100.00;99932.56;5126075;28;20054;-69
2022/10/22 05:03:42;;;;;;;0.40;0.40;;;;;;;8.29;100.00;99925.66;5125963;28;20035;-70
2022/10/22 05:06:08;;;;;;;0.50;0.50;;;;;;;8.34;100.00;99928.19;5125789;28;20034;-70
2022/10/22 05:08:33;;;;;;;0.40;0.40;;;;;;;8.36;100.00;99930.78;5125603;28;20053;-70
2022/10/22 05:10:59;;;;;;;0.40;0.40;;;;;;;8.35;100.00;99922.19;5107276;28;20023;-69
2022/10/22 05:13:24;;;;;;;0.40;0.40;;;;;;;8.34;100.00;99924.78;5107375;28;20466;-70
2022/10/22 05:15:50;;;;;;;0.50;0.50;;;;;;;8.33;100.00;99916.16;5125817;28;20027;-69
2022/10/22 05:18:16;;;;;;;0.40;0.40;;;;;;;8.39;100.00;99929.03;5125410;28;20019;-70
2022/10/22 05:20:41;;;;;;;0.40;0.40;;;;;;;8.39;100.00;99925.59;5107335;28;20051;-69
2022/10/22 05:23:07;;;;;;;0.40;0.40;;;;;;;8.41;100.00;99923.84;5125403;28;20107;-69
2022/10/22 05:25:37;;;;;;;0.40;0.40;;;;;;;8.42;100.00;99931.59;5107147;28;20032;-69
2022/10/22 05:28:03;;;;;;;0.50;0.50;;;;;;;8.42;100.00;99929.00;5125870;28;20023;-70
2022/10/22 05:30:28;;;;;;;0.50;0.50;;;;;;;8.43;100.00;99930.72;5107386;28;20471;-70
2022/10/22 05:32:53;;;;;;;0.47;0.47;;;;;;;8.45;100.00;99933.28;5125684;28;20020;-70
2022/10/22 05:35:19;;;;;;;0.50;0.50;;;;;;;8.49;100.00;99935.00;5125425;28;20498;-70
2022/10/22 05:37:44;;;;;;;0.40;0.40;;;;;;;8.47;100.00;99928.09;5107127;28;20031;-70
2022/10/22 05:40:10;;;;;;;0.40;0.40;;;;;;;8.46;100.00;99929.00;5125139;28;20034;-70
2022/10/22 05:42:35;;;;;;;0.50;0.50;;;;;;;8.49;100.00;99939.31;5125542;28;20050;-70
2022/10/22 05:45:00;;;;;;;0.50;0.50;;;;;;;8.49;100.00;99939.31;5125391;28;20482;-70
2022/10/22 05:47:28;;;;;;;0.40;0.40;;;;;;;8.43;100.00;99941.06;5125470;28;20016;-69
2022/10/22 05:49:56;;;;;;;0.40;0.40;;;;;;;8.43;100.00;99933.31;5107012;28;20045;-69
2022/10/22 05:52:21;;;;;;;0.47;0.47;;;;;;;8.42;100.00;99939.34;5125425;28;20031;-69
2022/10/22 05:54:46;;;;;;;0.40;0.40;;;;;;;8.40;100.00;99942.84;5125317;28;20110;-70
2022/10/22 05:57:12;;;;;;;0.50;0.50;;;;;;;8.40;100.00;99948.00;5125379;28;20023;-70
2022/10/22 05:59:37;;;;;;;0.40;0.40;;;;;;;8.35;100.00;99937.69;5129227;28;20027;-70
2022/10/22 06:02:02;;;;;;;0.40;0.40;;;;;;;8.34;100.00;99941.13;5129283;28;20076;-70
2022/10/22 06:04:28;;;;;;;0.40;0.40;;;;;;;8.33;100.00;99936.84;5129120;28;20087;-70
2022/10/22 06:06:53;;;;;;;0.40;0.40;;;;;;;8.36;100.00;99946.28;5110620;28;20024;-70
2022/10/22 06:09:35;;;;;;;0.50;0.50;;;;;;;8.40;100.00;99956.63;5110703;28;20046;-70
2022/10/22 06:12:01;;;;;;;0.40;0.40;;;;;;;8.43;100.00;99956.59;5110909;28;20053;-69
2022/10/22 06:14:27;;;;;;;0.40;0.40;;;;;;;8.46;100.00;99957.44;5129104;28;20027;-70
2022/10/22 06:16:53;;;;;;;0.40;0.40;;;;;;;8.50;100.00;99969.50;5128872;28;20027;-69
2022/10/22 06:19:22;;;;;;;0.40;0.40;;;;;;;8.53;100.00;99957.38;5128919;28;20486;-70
2022/10/22 06:21:48;;;;;;;0.40;0.40;;;;;;;8.59;100.00;99963.44;5128792;28;20066;-70
2022/10/22 06:24:14;;;;;;;0.40;0.40;;;;;;;8.62;100.00;99959.09;5110389;28;20027;-70
2022/10/22 06:26:40;;;;;;;0.38;0.38;;;;;;;8.60;100.00;99955.66;5128806;28;20043;-70
2022/10/22 06:29:06;;;;;;;0.40;0.40;;;;;;;8.66;100.00;99954.75;5110300;28;20027;-70
2022/10/22 06:31:35;;;;;;;0.50;0.50;;;;;;;8.62;100.00;99959.09;5128662;28;20490;-69
2022/10/22 06:34:09;;;;;;;0.40;0.40;;;;;;;8.58;100.00;99952.22;5128505;28;20087;-69
2022/10/22 06:36:34;;;;;;;0.40;0.40;;;;;;;8.59;100.00;99959.13;5110310;28;20471;-70
2022/10/22 06:39:00;;;;;;;0.50;0.50;;;;;;;8.58;100.00;99961.72;5128380;28;20042;-70
2022/10/22 06:41:26;;;;;;;0.35;0.35;;;;;;;8.54;100.00;99960.84;5128412;28;20034;-70
2022/10/22 06:43:52;;;;;;;0.40;0.40;;;;;;;8.53;100.00;99970.31;5128609;28;20034;-70
2022/10/22 06:46:20;;;;;;;0.40;0.40;;;;;;;8.50;100.00;99964.34;5109964;28;20035;-69
2022/10/22 06:48:57;;;;;;;0.47;0.47;;;;;;;8.59;100.00;99968.59;5128387;28;20027;-70
2022/10/22 06:51:22;;;;;;;0.40;0.40;;;;;;;8.61;100.00;99970.31;5128607;28;20054;-69
2022/10/22 06:53:48;;;;;;;0.40;0.40;;;;;;;8.63;100.00;99963.41;5110003;28;20019;-70
2022/10/22 06:56:16;;;;;;;0.40;0.40;;;;;;;8.63;100.00;99973.75;5109862;28;20422;-70
2022/10/22 06:58:41;;;;;;;0.40;0.40;;;;;;;8.63;100.00;99976.34;5128248;28;20162;-71
2022/10/22 07:01:08;;;;;;;0.47;0.47;;;;;;;8.68;100.00;99971.13;5128074;28;20026;-71
2022/10/22 07:03:33;;;;;;;0.40;0.40;;;;;;;8.70;100.00;99977.16;5128041;28;20115;-69
2022/10/22 07:06:01;;;;;;;0.40;0.40;;;;;;;8.70;100.00;99976.28;5127917;28;20115;-70
2022/10/22 07:08:27;;;;;;;0.40;0.40;;;;;;;8.64;100.00;99970.28;5127917;28;20034;-70
2022/10/22 07:10:52;;;;;;;0.50;0.50;;;;;;;8.70;100.00;99973.69;5126754;28;20028;-69
2022/10/22 07:13:17;;;;;;;0.45;0.45;;;;;;;8.66;100.00;99978.91;5128034;28;20419;-69
2022/10/22 07:15:43;;;;;;;0.50;0.50;;;;;;;8.73;100.00;99978.84;5127707;28;20041;-70
2022/10/22 07:18:08;;;;;;;0.40;0.40;;;;;;;8.75;100.00;99982.28;5109336;28;20026;-69
2022/10/22 07:20:33;;;;;;;0.50;0.50;;;;;;;8.79;100.00;99979.66;5127810;28;20028;-70
2022/10/22 07:22:58;;;;;;;0.40;0.40;;;;;;;8.83;100.00;99983.09;5127657;28;20047;-70
2022/10/22 07:25:24;;;;;;;0.40;0.40;;;;;;;8.80;100.00;99989.13;5109125;28;20037;-71
2022/10/22 07:27:49;;;;;;;0.40;0.40;;;;;;;8.85;100.00;99986.50;5108245;28;20036;-68
2022/10/22 07:30:14;;;;;;;0.40;0.40;;;;;;;8.83;100.00;99977.06;5126330;28;20088;-68
2022/10/22 07:32:40;;;;;;;0.40;0.40;;;;;;;8.84;100.00;99976.16;5127038;28;20023;-68
2022/10/22 07:35:06;;;;;;;0.40;0.40;;;;;;;8.86;100.00;99982.19;5127211;28;20486;-68
2022/10/22 07:37:31;;;;;;;0.40;0.40;;;;;;;8.86;100.00;99985.66;5127584;28;20019;-68
2022/10/22 07:39:56;;;;;;;0.40;0.40;;;;;;;8.92;100.00;99988.19;5127254;28;20023;-68
2022/10/22 07:42:22;;;;;;;0.40;0.40;;;;;;;8.94;100.00;99985.59;5127249;28;20023;-68
2022/10/22 07:44:47;;;;;;;0.40;0.40;;;;;;;9.09;100.00;100001.88;5127104;28;20023;-68
2022/10/22 07:47:12;;;;;;;0.40;0.40;;;;;;;9.17;100.00;100000.03;5127129;28;20024;-67
2022/10/22 07:49:37;;;;;;;0.40;0.40;;;;;;;9.22;100.00;99994.84;5108987;28;20700;-69
2022/10/22 07:52:03;;;;;;;0.40;0.40;;;;;;;9.26;100.00;99999.13;5127312;28;20030;-68
2022/10/22 07:54:28;;;;;;;0.40;0.40;;;;;;;9.27;100.00;100003.41;5126731;28;20091;-68
2022/10/22 07:56:54;;;;;;;0.40;0.40;;;;;;;9.26;100.00;100006.88;5108585;28;20024;-68
2022/10/22 07:59:19;;;;;;;0.40;0.40;;;;;;;9.31;100.00;100012.91;5126670;28;20371;-64
2022/10/22 08:01:45;;;;;;;0.50;0.50;;;;;;;9.38;100.00;100011.94;5127002;28;20033;-65
2022/10/22 08:04:11;;;;;;;0.40;0.40;;;;;;;9.43;100.00;100011.91;5126834;28;20096;-65
2022/10/22 08:06:37;;;;;;;0.50;0.50;;;;;;;9.44;100.00;100008.41;5126619;28;20023;-66
2022/10/22 08:09:02;;;;;;;0.50;0.50;;;;;;;9.42;100.00;100003.25;5126764;28;20099;-65
2022/10/22 08:11:28;;;;;;;0.40;0.40;;;;;;;9.48;100.00;100006.66;5091088;28;20023;-64
2022/10/22 08:13:53;;;;;;;0.40;0.40;;;;;;;9.45;100.00;100004.97;5126611;28;20019;-65
2022/10/22 08:16:19;;;;;;;0.40;0.40;;;;;;;9.47;100.00;100015.31;5108231;28;20027;-65
2022/10/22 08:18:44;;;;;;;0.40;0.40;;;;;;;9.48;100.00;100017.91;5126316;28;20027;-65
2022/10/22 08:21:12;;;;;;;0.40;0.40;;;;;;;9.52;100.00;100013.56;5126433;28;20016;-66
2022/10/22 08:23:40;;;;;;;0.40;0.40;;;;;;;9.58;100.00;100020.41;5126571;28;20054;-67
2022/10/22 08:26:05;;;;;;;0.40;0.40;;;;;;;9.63;100.00;100027.22;5107775;28;20019;-66
2022/10/22 08:28:35;;;;;;;0.40;0.40;;;;;;;9.67;100.00;100023.75;5126271;28;20118;-65
2022/10/22 08:31:01;;;;;;;0.40;0.40;;;;;;;9.72;100.00;100025.41;5126544;28;20375;-68
2022/10/22 08:33:26;;;;;;;0.45;0.45;;;;;;;9.77;100.00;100015.88;5126252;28;20056;-68
2022/10/22 08:35:52;;;;;;;0.50;0.50;;;;;;;9.81;100.00;100024.47;5126172;28;20348;-69
2022/10/22 08:38:17;;;;;;;0.50;0.50;;;;;;;9.83;100.00;100020.13;5126471;28;20047;-69
2022/10/22 08:40:47;;;;;;;0.40;0.40;;;;;;;9.82;100.00;100010.63;5107543;28;20016;-68
2022/10/22 08:43:12;;;;;;;0.40;0.40;;;;;;;9.90;100.00;100020.03;5107747;28;20049;-68
2022/10/22 08:46:16;;;;;;;0.50;0.50;;;;;;;9.89;100.00;100015.72;5107923;28;20051;-68
2022/10/22 08:48:53;;;;;;;0.50;0.50;;;;;;;10.01;100.00;100030.28;5126175;28;20039;-69
2022/10/22 08:51:22;;;;;;;0.30;0.30;;;;;;;10.01;100.00;100017.31;5126246;28;20028;-71
2022/10/22 08:54:09;;;;;;;0.40;0.40;;;;;;;10.06;100.00;100025.03;5126103;28;20106;-70
2022/10/22 08:56:35;;;;;;;0.40;0.40;;;;;;;10.02;100.00;100033.72;5125922;28;20039;-66
2022/10/22 08:59:24;;;;;;;0.40;0.40;;;;;;;9.94;100.00;100023.44;5125931;28;20072;-70
2022/10/22 09:01:52;;;;;;;0.40;0.40;;;;;;;9.92;100.00;100023.47;5125983;28;20049;-69
2022/10/22 09:04:27;;;;;;;0.43;0.43;;;;;;;9.84;100.00;100014.91;5125935;28;20030;-69
2022/10/22 09:06:56;;;;;;;0.40;0.40;;;;;;;9.88;100.00;100021.78;5125859;28;20051;-67
2022/10/22 09:09:26;;;;;;;0.40;0.40;;;;;;;9.91;100.00;100016.56;5125656;28;20073;-67
2022/10/22 09:12:03;;;;;;;0.40;0.40;;;;;;;9.98;100.00;100019.09;5125514;28;20028;-69
2022/10/22 09:14:28;;;;;;;0.40;0.40;;;;;;;10.07;100.00;100028.47;5125887;28;20043;-68
2022/10/22 09:17:16;;;;;;;0.40;0.40;;;;;;;10.16;100.00;100025.75;5125913;28;20016;-68
2022/10/22 09:19:51;;;;;;;0.40;0.40;;;;;;;10.17;100.00;100028.34;5126228;28;20035;-68
2022/10/22 09:22:52;;;;;;;0.40;0.40;;;;;;;10.23;100.00;100036.91;5125871;28;20051;-68
2022/10/22 09:25:28;;;;;;;0.40;0.40;;;;;;;10.26;100.00;100036.88;5022481;28;20064;-64
2022/10/22 09:27:57;;;;;;;0.40;0.40;;;;;;;10.26;100.00;100039.47;5006287;28;20029;-65
2022/10/22 09:30:26;;;;;;;0.40;0.40;;;;;;;10.26;100.00;100042.94;5022955;28;20045;-64
2022/10/22 09:33:06;;;;;;;0.40;0.40;;;;;;;10.30;100.00;100043.75;5023519;28;20066;-64
2022/10/22 09:35:52;;;;;;;0.40;0.40;;;;;;;10.36;100.00;100038.50;5026234;28;20045;-64
2022/10/22 09:38:21;;;;;;;0.50;0.50;;;;;;;10.26;100.00;100011.81;5026831;28;20034;-63
2022/10/22 09:40:50;;;;;;;0.40;0.40;;;;;;;10.36;100.00;100017.72;5026745;28;20087;-65
2022/10/22 09:43:16;;;;;;;0.40;0.40;;;;;;;10.33;100.00;100041.13;5027051;28;20071;-64
2022/10/22 09:45:42;;;;;;;0.40;0.40;;;;;;;10.20;100.00;100043.03;5026985;28;20116;-65
2022/10/22 09:48:13;;;;;;;0.40;0.40;;;;;;;10.12;100.00;100045.72;5026793;28;20541;-66
2022/10/22 09:50:55;;;;;;;0.50;0.50;;;;;;;10.09;100.00;100037.97;5026919;28;20032;-65
2022/10/22 09:53:25;;;;;;;0.40;0.40;;;;;;;10.07;100.00;100042.31;5026659;28;20072;-66
2022/10/22 09:55:53;;;;;;;0.40;0.40;;;;;;;9.95;100.00;100032.09;5009797;28;20034;-67
2022/10/22 09:58:19;;;;;;;0.50;0.50;;;;;;;9.92;100.00;100039.03;5026466;28;20029;-66
2022/10/22 10:00:51;;;;;;;0.40;0.40;;;;;;;9.87;100.00;100045.97;5021836;28;20437;-66
2022/10/22 10:03:30;;;;;;;0.50;0.50;;;;;;;9.88;100.00;100052.91;5129429;28;20023;-67
2022/10/22 10:05:58;;;;;;;0.50;0.50;;;;;;;9.87;100.00;100038.22;5129208;28;20460;-67
2022/10/22 10:08:23;;;;;;;0.40;0.40;;;;;;;10.03;100.00;100048.41;5129222;28;20083;-67
2022/10/22 10:10:52;;;;;;;0.50;0.50;;;;;;;10.13;100.00;100051.75;5128902;28;20031;-68
2022/10/22 10:13:50;;;;;;;0.50;0.50;;;;;;;10.17;100.00;100048.25;5129337;28;20059;-67
2022/10/22 10:16:39;;;;;;;0.40;0.40;;;;;;;10.12;100.00;100050.03;5129235;28;20500;-67
2022/10/22 10:19:18;;;;;;;0.40;0.40;;;;;;;10.00;100.00;100053.66;5129304;28;20062;-66
2022/10/22 10:22:02;;;;;;;0.40;0.40;;;;;;;9.99;100.00;100051.91;5128850;28;20099;-67
2022/10/22 10:24:48;;;;;;;0.40;0.40;;;;;;;10.01;100.00;100058.81;5128925;28;20034;-67
2022/10/22 10:27:33;;;;;;;0.40;0.40;;;;;;;10.16;100.00;100062.06;5128735;28;20019;-67
2022/10/22 10:30:11;;;;;;;0.40;0.40;;;;;;;10.16;100.00;100052.56;5128975;28;20023;-69
2022/10/22 10:32:55;;;;;;;0.50;0.50;;;;;;;10.22;100.00;100059.44;5128735;28;20016;-70
2022/10/22 10:35:35;;;;;;;0.40;0.40;;;;;;;10.19;100.00;100064.66;5128808;28;20024;-70
2022/10/22 10:38:19;;;;;;;0.40;0.40;;;;;;;10.15;100.00;100069.03;5128684;28;20110;-72
2022/10/22 10:40:54;;;;;;;0.40;0.40;;;;;;;10.13;100.00;100077.69;5128440;28;20075;-72
2022/10/22 10:43:35;;;;;;;0.40;0.40;;;;;;;10.15;100.00;100079.41;5128704;28;20020;-71
2022/10/22 10:46:26;;;;;;;0.60;0.60;;;;;;;10.17;100.00;100067.25;5128550;28;20038;-70
2022/10/22 10:48:59;;;;;;;0.50;0.50;;;;;;;10.33;100.00;100074.88;5128614;28;20095;-70
2022/10/22 10:51:45;;;;;;;0.40;0.40;;;;;;;10.43;100.00;100067.81;5128787;28;20097;-69
2022/10/22 10:54:11;;;;;;;0.40;0.40;;;;;;;10.45;100.00;100073.00;5110178;28;20036;-69
2022/10/22 10:56:48;;;;;;;0.60;0.60;;;;;;;10.36;100.00;100063.56;5128334;28;20074;-69
2022/10/22 10:59:48;;;;;;;0.40;0.40;;;;;;;10.31;100.00;100076.59;5128379;28;20028;-69
2022/10/22 11:02:41;;;;;;;0.40;0.40;;;;;;;10.27;100.00;100080.13;5110030;28;20397;-69
2022/10/22 11:05:34;;;;;;;0.40;0.40;;;;;;;10.29;100.00;100073.16;5128151;28;20041;-69
2022/10/22 11:08:17;;;;;;;0.40;0.40;;;;;;;10.27;100.00;100067.16;5127858;28;20080;-70
2022/10/22 11:10:51;;;;;;;0.40;0.40;;;;;;;10.31;100.00;100071.41;5128090;28;20023;-69
2022/10/22 11:13:33;;;;;;;0.40;0.40;;;;;;;10.44;100.00;100079.91;5109824;28;20030;-69
2022/10/22 11:16:13;;;;;;;0.50;0.50;;;;;;;10.51;100.00;100072.94;5110261;28;20016;-69
2022/10/22 11:18:43;;;;;;;0.40;0.40;;;;;;;10.70;100.00;100083.06;5109741;28;20024;-68
2022/10/22 11:21:50;;;;;;;0.40;0.40;;;;;;;10.84;100.00;100072.47;5128151;28;20019;-70
2022/10/22 11:24:23;;;;;;;0.40;0.40;;;;;;;10.91;100.00;100061.97;5008488;28;20196;-69
2022/10/22 11:26:48;;;;;;;0.40;0.40;;;;;;;11.02;100.00;100059.19;5024336;28;20033;-68
2022/10/22 11:29:20;;;;;;;0.32;0.32;;;;;;;11.08;100.00;100060.84;5023658;28;20042;-68
2022/10/22 11:31:48;;;;;;;0.40;0.40;;;;;;;11.10;100.00;100063.41;5023876;28;20034;-70
2022/10/22 11:34:21;;;;;;;0.40;0.40;;;;;;;11.09;100.00;100066.88;5024805;28;20291;-69
2022/10/22 11:36:48;;;;;;;0.40;0.40;;;;;;;11.12;100.00;100062.50;5024906;28;20041;-69
2022/10/22 11:39:50;;;;;;;0.30;0.30;;;;;;;11.15;100.00;100069.38;5024805;28;20029;-69
2022/10/22 11:42:21;;;;;;;0.50;0.50;;;;;;;11.15;100.00;100072.84;5024815;28;20122;-68
2022/10/22 11:44:59;;;;;;;0.50;0.50;;;;;;;11.16;100.00;100068.50;5024786;28;20033;-70